Time;durP1;ratioP1;P1;durP2;ratioP2;P2;SDS_P1;SDS_P2;PMS_P1;PMS_P2;Temp;Humidity;BMP_temperature;BMP_pressure;BME280_temperature;BME280_humidity;BME280_pressure;Samples;Min_cycle;Max_cycle;Signal;HPM_P1;HPM_P2
2022/05/15 00:00:37;;;;;;;8.60;4.87;;;20.60;55.90;;;;;;5060750;28;20160;-93
2022/05/15 00:06:31;;;;;;;7.87;5.20;;;20.40;56.30;;;;;;5060749;28;20222;-93
2022/05/15 00:08:58;;;;;;;6.83;4.23;;;20.40;56.40;;;;;;5059857;28;20191;-92
2022/05/15 00:11:24;;;;;;;7.40;4.67;;;20.40;56.10;;;;;;5059903;28;20169;-93
2022/05/15 00:13:50;;;;;;;9.00;4.07;;;20.40;56.30;;;;;;5059967;28;20222;-94
2022/05/15 00:23:01;;;;;;;7.70;4.30;;;20.30;56.30;;;;;;5059451;28;20222;-94
2022/05/15 00:25:27;;;;;;;8.83;4.00;;;20.30;56.40;;;;;;5058333;28;20160;-94
2022/05/15 00:27:53;;;;;;;6.60;4.40;;;20.30;56.30;;;;;;5058463;28;20161;-94
2022/05/15 00:30:37;;;;;;;7.07;4.40;;;20.30;56.50;;;;;;5058621;28;20184;-94
2022/05/15 00:33:04;;;;;;;7.13;4.50;;;20.20;56.70;;;;;;5058300;28;20280;-94
2022/05/15 00:35:30;;;;;;;9.77;4.30;;;20.20;56.70;;;;;;5058244;28;20229;-94
2022/05/15 00:37:56;;;;;;;7.70;4.20;;;20.20;56.60;;;;;;5058220;28;20164;-93
2022/05/15 00:40:38;;;;;;;7.17;4.10;;;20.20;56.40;;;;;;5058079;28;20884;-93
2022/05/15 00:43:05;;;;;;;4.63;3.57;;;20.20;56.40;;;;;;5057834;28;20170;-93
2022/05/15 00:45:30;;;;;;;7.97;4.13;;;20.20;56.40;;;;;;5057878;28;20207;-93
2022/05/15 00:47:56;;;;;;;7.20;4.47;;;20.20;56.40;;;;;;5057687;28;20166;-94
2022/05/15 00:50:46;;;;;;;8.10;4.03;;;20.20;56.40;;;;;;5057332;28;20192;-94
2022/05/15 00:53:12;;;;;;;7.30;3.90;;;20.20;56.40;;;;;;5057374;28;20191;-93
2022/05/15 00:55:46;;;;;;;5.83;3.70;;;20.20;56.30;;;;;;5057194;28;20176;-93
2022/05/15 00:58:17;;;;;;;5.37;4.00;;;20.20;56.30;;;;;;5057542;28;20240;-95
2022/05/15 01:00:50;;;;;;;9.20;4.60;;;20.10;56.40;;;;;;5057453;28;20169;-94
2022/05/15 01:03:18;;;;;;;8.20;4.57;;;20.10;56.60;;;;;;5056536;28;20213;-93
2022/05/15 01:05:53;;;;;;;7.50;4.47;;;20.10;56.60;;;;;;5056736;28;20168;-93
2022/05/15 01:08:19;;;;;;;6.73;4.60;;;20.00;56.70;;;;;;5055563;28;20307;-93
2022/05/15 01:10:48;;;;;;;7.73;4.70;;;20.00;56.80;;;;;;5046977;28;20210;-94
2022/05/15 01:13:15;;;;;;;8.50;4.33;;;20.00;56.90;;;;;;5056707;28;20209;-93
2022/05/15 01:15:43;;;;;;;10.90;4.80;;;19.90;56.80;;;;;;5057264;28;20163;-93
2022/05/15 01:18:09;;;;;;;7.17;4.87;;;19.90;57.00;;;;;;5056822;28;20159;-93
2022/05/15 01:20:37;;;;;;;8.80;4.57;;;19.90;57.00;;;;;;5038017;28;20166;-93
2022/05/15 01:23:04;;;;;;;7.67;4.40;;;19.90;56.80;;;;;;5049030;28;20221;-94
2022/05/15 01:25:33;;;;;;;6.53;4.57;;;19.90;56.80;;;;;;5056666;28;20163;-93
2022/05/15 01:28:11;;;;;;;6.30;4.47;;;19.90;56.60;;;;;;5056200;28;20186;-93
2022/05/15 01:30:41;;;;;;;6.63;4.40;;;19.90;56.80;;;;;;5058271;28;20167;-92
2022/05/15 01:33:08;;;;;;;9.13;5.03;;;19.80;56.80;;;;;;5053422;28;20202;-93
2022/05/15 01:35:34;;;;;;;6.50;4.27;;;19.90;56.70;;;;;;5038588;28;20161;-94
2022/05/15 01:38:07;;;;;;;11.77;4.93;;;19.90;56.60;;;;;;5038690;28;20206;-94
2022/05/15 01:40:34;;;;;;;8.07;4.50;;;19.90;56.70;;;;;;5038489;28;20229;-92
2022/05/15 01:43:00;;;;;;;6.77;4.57;;;19.80;56.70;;;;;;5038396;28;20177;-94
2022/05/15 01:45:26;;;;;;;7.17;4.40;;;19.80;56.70;;;;;;5038458;28;20160;-94
2022/05/15 01:54:00;;;;;;;8.93;4.53;;;19.80;56.70;;;;;;5038730;28;20200;-94
2022/05/15 01:56:26;;;;;;;5.90;4.50;;;19.70;56.90;;;;;;5047528;28;20188;-94
2022/05/15 01:58:52;;;;;;;7.73;5.10;;;19.70;57.10;;;;;;5038277;28;20175;-95
2022/05/15 02:01:19;;;;;;;10.37;4.73;;;19.70;56.90;;;;;;5037496;28;20169;-94
2022/05/15 02:03:45;;;;;;;7.47;4.47;;;19.70;56.90;;;;;;5038103;28;20212;-93
2022/05/15 02:06:11;;;;;;;5.73;4.30;;;19.70;56.90;;;;;;5037858;28;20177;-94
2022/05/15 02:08:51;;;;;;;6.23;4.23;;;19.70;56.70;;;;;;5037836;28;20174;-93
2022/05/15 02:11:17;;;;;;;7.80;4.73;;;19.70;56.70;;;;;;5037797;28;20168;-92
2022/05/15 02:13:42;;;;;;;6.03;4.43;;;19.70;56.60;;;;;;5038080;28;20223;-92
2022/05/15 02:16:08;;;;;;;9.33;5.27;;;19.60;56.90;;;;;;5037878;28;20185;-93
2022/05/15 02:21:56;;;;;;;8.60;4.50;;;19.60;57.00;;;;;;5042282;28;20219;-94
2022/05/15 02:24:22;;;;;;;8.87;4.50;;;19.60;56.80;;;;;;5041831;28;20161;-93
2022/05/15 02:26:48;;;;;;;5.93;4.43;;;19.60;56.80;;;;;;5041585;28;20229;-94
2022/05/15 02:29:51;;;;;;;6.53;4.37;;;19.50;56.80;;;;;;5041605;28;20166;-93
2022/05/15 02:32:17;;;;;;;9.40;4.97;;;19.50;57.00;;;;;;5041749;28;20185;-94
2022/05/15 02:34:43;;;;;;;7.73;4.90;;;19.50;57.10;;;;;;5041693;28;20197;-93
2022/05/15 02:37:08;;;;;;;7.10;4.43;;;19.50;56.80;;;;;;5039349;28;20245;-94
2022/05/15 02:39:36;;;;;;;5.37;4.30;;;19.50;56.80;;;;;;5038206;28;20179;-93
2022/05/15 02:42:01;;;;;;;8.40;4.60;;;19.50;56.80;;;;;;5038191;28;20189;-93
2022/05/15 02:44:28;;;;;;;5.70;4.27;;;19.50;56.80;;;;;;5038705;28;20233;-93
2022/05/15 02:46:54;;;;;;;7.30;4.63;;;19.50;56.90;;;;;;5038361;28;20173;-92
2022/05/15 02:52:12;;;;;;;9.03;4.70;;;19.40;57.00;;;;;;5037625;28;20248;-94
2022/05/15 02:54:37;;;;;;;7.50;4.60;;;19.40;57.00;;;;;;5037967;28;20200;-93
2022/05/15 02:57:07;;;;;;;6.13;4.73;;;19.40;57.10;;;;;;5038418;28;20169;-94
2022/05/15 02:59:45;;;;;;;7.23;4.63;;;19.40;57.20;;;;;;5037921;28;20260;-93
2022/05/15 03:02:10;;;;;;;6.57;4.80;;;19.30;57.10;;;;;;5038084;28;20178;-93
2022/05/15 03:04:36;;;;;;;6.17;4.40;;;19.30;57.10;;;;;;5038280;28;20180;-93
2022/05/15 03:07:05;;;;;;;8.67;4.80;;;19.30;57.10;;;;;;5057448;28;20210;-93
2022/05/15 03:09:32;;;;;;;7.33;4.37;;;19.30;57.00;;;;;;5042775;28;20264;-93
2022/05/15 03:11:58;;;;;;;10.87;4.70;;;19.30;57.30;;;;;;5038214;28;20206;-93
2022/05/15 03:14:23;;;;;;;5.10;4.27;;;19.30;57.30;;;;;;5041755;28;20210;-93
2022/05/15 03:16:49;;;;;;;8.27;4.93;;;19.20;57.20;;;;;;5042121;28;20262;-93
2022/05/15 03:19:15;;;;;;;6.57;4.60;;;19.20;57.30;;;;;;5042331;28;20678;-93
2022/05/15 03:21:41;;;;;;;10.97;5.43;;;19.20;57.10;;;;;;5029463;28;20187;-93
2022/05/15 03:24:09;;;;;;;8.53;5.10;;;19.20;57.40;;;;;;5036348;28;20185;-94
2022/05/15 03:26:55;;;;;;;9.40;4.60;;;19.10;57.60;;;;;;5047377;28;20177;-93
2022/05/15 03:29:21;;;;;;;5.33;4.07;;;19.10;57.40;;;;;;5040436;28;20197;-93
2022/05/15 03:31:47;;;;;;;7.47;4.77;;;19.20;57.20;;;;;;5040650;28;20301;-93
2022/05/15 03:34:15;;;;;;;7.17;4.80;;;19.10;57.50;;;;;;5029727;28;20295;-93
2022/05/15 03:36:42;;;;;;;7.97;5.17;;;19.00;57.70;;;;;;5029292;28;20184;-93
2022/05/15 03:39:08;;;;;;;6.73;5.07;;;19.00;57.60;;;;;;5041624;28;20180;-93
2022/05/15 03:41:35;;;;;;;8.27;5.00;;;19.00;57.80;;;;;;5041972;28;20177;-94
2022/05/15 03:44:41;;;;;;;7.60;4.77;;;19.00;57.90;;;;;;5054576;28;20168;-93
2022/05/15 03:47:07;;;;;;;9.63;5.60;;;18.90;57.80;;;;;;5059929;28;20185;-93
2022/05/15 03:49:33;;;;;;;6.80;5.00;;;18.90;57.90;;;;;;5060144;28;20156;-92
2022/05/15 03:51:58;;;;;;;7.17;5.03;;;18.90;58.00;;;;;;5060178;28;20161;-93
2022/05/15 03:54:24;;;;;;;7.40;4.90;;;18.90;57.80;;;;;;5060045;28;20253;-94
2022/05/15 03:56:50;;;;;;;8.00;4.97;;;18.90;58.00;;;;;;5060022;28;20161;-94
2022/05/15 03:59:23;;;;;;;6.40;4.40;;;18.80;58.30;;;;;;5059950;28;20148;-94
2022/05/15 04:01:49;;;;;;;7.00;4.97;;;18.80;58.10;;;;;;5059893;28;20259;-94
2022/05/15 04:04:30;;;;;;;6.23;5.00;;;18.80;58.00;;;;;;5059805;28;20146;-93
2022/05/15 04:06:57;;;;;;;9.97;5.30;;;18.80;58.10;;;;;;5059562;28;20196;-94
2022/05/15 04:09:23;;;;;;;6.00;4.53;;;18.80;57.90;;;;;;5042900;28;20180;-93
2022/05/15 04:11:49;;;;;;;6.67;4.57;;;18.80;57.90;;;;;;5043022;28;20188;-94
2022/05/15 04:14:39;;;;;;;6.13;4.40;;;18.80;57.60;;;;;;5042815;28;20190;-94
2022/05/15 04:17:05;;;;;;;5.63;4.40;;;18.90;57.40;;;;;;5039028;28;20185;-94
2022/05/15 04:19:33;;;;;;;7.93;4.70;;;18.90;57.30;;;;;;5035243;28;20154;-94
2022/05/15 04:22:02;;;;;;;6.57;4.93;;;18.90;57.30;;;;;;5042490;28;20165;-94
2022/05/15 04:24:28;;;;;;;14.20;5.70;;;18.90;57.40;;;;;;5042471;28;20210;-93
2022/05/15 04:26:54;;;;;;;6.30;4.73;;;18.90;57.50;;;;;;5042556;28;20161;-94
2022/05/15 04:29:20;;;;;;;7.00;5.37;;;18.90;57.60;;;;;;5032548;28;20204;-95
2022/05/15 04:32:10;;;;;;;7.60;5.10;;;18.90;57.50;;;;;;5032487;28;20247;-94
2022/05/15 04:34:36;;;;;;;6.93;5.17;;;18.90;57.50;;;;;;5042161;28;20188;-94
2022/05/15 04:37:02;;;;;;;8.73;5.37;;;19.00;57.40;;;;;;5042009;28;20167;-95
2022/05/15 04:39:32;;;;;;;7.00;4.43;;;19.00;57.30;;;;;;5041674;28;20185;-94
2022/05/15 04:42:00;;;;;;;6.17;5.03;;;19.00;57.00;;;;;;5035512;28;20180;-95
2022/05/15 04:44:25;;;;;;;5.43;3.93;;;19.10;56.90;;;;;;5020314;28;20245;-94
2022/05/15 04:47:05;;;;;;;6.60;4.50;;;19.20;56.70;;;;;;5020545;28;20204;-95
2022/05/15 04:49:31;;;;;;;7.03;4.60;;;19.20;56.50;;;;;;5020769;28;20255;-94
2022/05/15 04:51:57;;;;;;;7.17;4.53;;;19.30;56.50;;;;;;5021099;28;20192;-94
2022/05/15 04:54:23;;;;;;;7.03;4.93;;;19.30;56.30;;;;;;5037942;28;20210;-94
2022/05/15 04:57:05;;;;;;;6.57;3.90;;;19.30;56.20;;;;;;5038641;28;20244;-93
2022/05/15 04:59:31;;;;;;;5.40;4.07;;;19.30;56.20;;;;;;5038173;28;20201;-94
2022/05/15 05:01:58;;;;;;;7.70;5.10;;;19.40;56.10;;;;;;5038303;28;20180;-93
2022/05/15 05:04:24;;;;;;;6.40;5.13;;;19.40;56.00;;;;;;5037705;28;20169;-94
2022/05/15 05:06:53;;;;;;;8.07;5.33;;;19.50;55.90;;;;;;5037716;28;20177;-94
2022/05/15 05:09:19;;;;;;;6.33;4.93;;;19.50;55.80;;;;;;5032855;28;20216;-94
2022/05/15 05:11:44;;;;;;;8.80;5.33;;;19.50;56.00;;;;;;5049462;28;20169;-94
2022/05/15 05:14:10;;;;;;;5.73;4.00;;;19.60;55.80;;;;;;5054081;28;20205;-95
2022/05/15 05:16:47;;;;;;;6.97;5.70;;;19.60;55.50;;;;;;5054746;28;20177;-95
2022/05/15 05:19:13;;;;;;;5.90;4.97;;;19.80;55.50;;;;;;5054421;28;20163;-94
2022/05/15 05:21:39;;;;;;;9.00;4.90;;;19.80;55.80;;;;;;5053134;28;20241;-94
2022/05/15 05:24:04;;;;;;;8.20;4.30;;;19.80;55.80;;;;;;5041683;28;20568;-94
2022/05/15 05:26:43;;;;;;;7.30;5.07;;;20.00;55.60;;;;;;5029936;28;20223;-94
2022/05/15 05:29:08;;;;;;;4.73;3.30;;;20.10;55.40;;;;;;5026224;28;20204;-94
2022/05/15 05:31:34;;;;;;;3.30;2.70;;;20.20;55.60;;;;;;5031044;28;20173;-94
2022/05/15 05:34:00;;;;;;;3.83;3.10;;;20.40;54.60;;;;;;5037871;28;20215;-94
2022/05/15 05:36:26;;;;;;;4.03;2.70;;;20.50;53.90;;;;;;5029648;28;20186;-94
2022/05/15 05:38:52;;;;;;;4.83;2.70;;;20.60;53.30;;;;;;5032285;28;20171;-94
2022/05/15 05:41:18;;;;;;;5.30;4.20;;;20.70;52.70;;;;;;5033184;28;20185;-94
2022/05/15 05:43:43;;;;;;;3.53;2.77;;;20.80;53.10;;;;;;5040355;28;20572;-94
2022/05/15 05:46:11;;;;;;;3.07;2.63;;;20.90;52.50;;;;;;5022690;28;20192;-94
2022/05/15 05:48:37;;;;;;;3.10;2.67;;;21.00;52.00;;;;;;5037536;28;20183;-95
2022/05/15 05:51:02;;;;;;;4.37;3.07;;;21.10;51.60;;;;;;5044880;28;20244;-93
2022/05/15 05:53:28;;;;;;;3.73;2.53;;;21.20;51.40;;;;;;5043906;28;20212;-94
2022/05/15 05:55:54;;;;;;;3.57;2.80;;;21.30;51.10;;;;;;5042887;28;20177;-94
2022/05/15 05:58:20;;;;;;;2.97;2.50;;;21.50;50.80;;;;;;5055159;28;20185;-94
2022/05/15 06:00:45;;;;;;;4.00;2.30;;;21.70;50.40;;;;;;5057689;28;20225;-94
2022/05/15 06:05:58;;;;;;;3.70;2.30;;;22.50;49.20;;;;;;5056977;28;20157;-95
2022/05/15 06:08:27;;;;;;;3.43;2.33;;;22.80;48.50;;;;;;5056849;28;20215;-95
2022/05/15 06:10:53;;;;;;;3.17;2.63;;;23.10;48.10;;;;;;5056813;28;20164;-95
2022/05/15 06:13:19;;;;;;;3.50;3.20;;;23.30;47.80;;;;;;5057641;28;20236;-94
2022/05/15 06:15:47;;;;;;;3.20;2.47;;;23.40;47.80;;;;;;5057105;28;20158;-94
2022/05/15 06:18:13;;;;;;;2.67;2.40;;;23.50;47.30;;;;;;5056601;28;20191;-94
2022/05/15 06:20:38;;;;;;;4.00;2.63;;;23.70;47.10;;;;;;5056481;28;20188;-95
2022/05/15 06:23:04;;;;;;;3.93;2.30;;;23.70;47.00;;;;;;5057037;28;20175;-94
2022/05/15 06:25:35;;;;;;;4.20;2.90;;;23.70;47.00;;;;;;5055846;28;20202;-95
2022/05/15 06:28:01;;;;;;;4.57;2.73;;;23.70;46.90;;;;;;5057160;28;20183;-94
2022/05/15 06:30:27;;;;;;;2.87;2.50;;;23.80;46.80;;;;;;5046564;28;20185;-94
2022/05/15 06:32:52;;;;;;;3.90;2.20;;;23.80;46.70;;;;;;5035672;28;20213;-94
2022/05/15 06:35:19;;;;;;;2.87;2.40;;;23.90;46.50;;;;;;5035218;28;20176;-94
2022/05/15 06:37:45;;;;;;;3.20;2.50;;;24.00;46.60;;;;;;5035149;28;20177;-95
2022/05/15 06:40:13;;;;;;;3.60;2.60;;;24.20;46.40;;;;;;5033576;28;20213;-95
2022/05/15 06:42:40;;;;;;;3.20;2.50;;;24.40;46.30;;;;;;5033731;28;20185;-94
2022/05/15 06:45:27;;;;;;;3.20;2.50;;;24.50;46.00;;;;;;5036753;28;20205;-95
2022/05/15 06:47:53;;;;;;;3.73;2.77;;;24.60;45.80;;;;;;5053834;28;20177;-95
2022/05/15 06:50:20;;;;;;;2.93;2.20;;;24.80;45.70;;;;;;5054622;28;20185;-95
2022/05/15 06:52:46;;;;;;;3.93;2.73;;;24.90;45.60;;;;;;5055994;28;20213;-94
2022/05/15 06:55:27;;;;;;;4.30;2.53;;;24.90;45.70;;;;;;5056021;28;20172;-95
2022/05/15 06:57:53;;;;;;;6.23;2.80;;;24.90;45.70;;;;;;5048280;28;20211;-94
2022/05/15 07:00:25;;;;;;;3.33;2.23;;;24.90;45.80;;;;;;5032319;28;20178;-94
2022/05/15 07:02:51;;;;;;;4.30;2.80;;;25.00;45.90;;;;;;5012886;28;20177;-94
2022/05/15 07:05:22;;;;;;;5.30;3.00;;;25.00;45.90;;;;;;5016906;28;20212;-94
2022/05/15 07:07:48;;;;;;;4.55;2.70;;;25.10;45.90;;;;;;5016438;28;20550;-94
2022/05/15 07:10:13;;;;;;;4.57;2.70;;;25.30;45.80;;;;;;5016580;28;20381;-94
2022/05/15 07:12:39;;;;;;;5.15;2.75;;;25.30;45.70;;;;;;5015118;28;20228;-94
2022/05/15 07:15:12;;;;;;;4.53;2.78;;;25.20;45.60;;;;;;5011890;28;20174;-95
2022/05/15 07:17:38;;;;;;;3.70;2.83;;;25.30;45.90;;;;;;5027707;28;20518;-94
2022/05/15 07:20:05;;;;;;;5.22;2.80;;;25.50;45.90;;;;;;5026874;28;20626;-95
2022/05/15 07:22:31;;;;;;;3.00;2.55;;;25.60;45.90;;;;;;5033395;28;20169;-94
2022/05/15 07:24:57;;;;;;;8.50;3.13;;;25.60;45.90;;;;;;5033100;28;20515;-93
2022/05/15 07:27:22;;;;;;;5.28;3.22;;;25.70;45.40;;;;;;5037606;28;20391;-95
2022/05/15 07:29:48;;;;;;;5.45;3.47;;;25.80;45.50;;;;;;5039954;28;20279;-94
2022/05/15 07:32:14;;;;;;;4.80;3.30;;;25.80;46.10;;;;;;5034749;28;20288;-94
2022/05/15 07:34:40;;;;;;;4.32;3.20;;;25.80;46.10;;;;;;5039614;28;20197;-95
2022/05/15 07:37:07;;;;;;;6.15;3.25;;;25.80;46.50;;;;;;5036736;28;20173;-95
2022/05/15 07:39:32;;;;;;;6.68;3.67;;;25.80;46.30;;;;;;5035226;28;20165;-95
2022/05/15 07:41:58;;;;;;;6.68;3.28;;;25.80;46.40;;;;;;5036260;28;20452;-95
2022/05/15 07:44:25;;;;;;;5.40;3.03;;;25.80;46.60;;;;;;5036560;28;20184;-95
2022/05/15 07:46:51;;;;;;;8.85;3.80;;;25.80;46.70;;;;;;5038755;28;20697;-95
2022/05/15 07:49:17;;;;;;;5.88;3.88;;;25.80;46.30;;;;;;5036040;28;20180;-94
2022/05/15 07:51:46;;;;;;;7.00;3.72;;;25.70;46.50;;;;;;5036217;28;20471;-94
2022/05/15 07:54:14;;;;;;;4.28;3.08;;;25.70;46.40;;;;;;5037944;28;20209;-94
2022/05/15 07:56:40;;;;;;;4.75;3.22;;;25.70;46.40;;;;;;5033587;28;20282;-95
2022/05/15 07:59:06;;;;;;;5.22;3.40;;;25.70;46.70;;;;;;5034576;28;20368;-95
2022/05/15 08:01:32;;;;;;;5.43;3.30;;;25.70;46.70;;;;;;5034195;28;20169;-95
2022/05/15 08:03:58;;;;;;;5.97;3.28;;;25.80;46.70;;;;;;5033739;28;20295;-95
2022/05/15 08:09:09;;;;;;;5.40;3.70;;;25.70;46.80;;;;;;5051328;28;20204;-95
2022/05/15 08:11:37;;;;;;;4.70;2.95;;;25.80;46.70;;;;;;5022854;28;20246;-96
2022/05/15 08:14:05;;;;;;;4.38;2.97;;;25.80;46.60;;;;;;5026666;28;20387;-95
2022/05/15 08:16:35;;;;;;;7.43;3.47;;;25.70;46.50;;;;;;5027267;28;20204;-95
2022/05/15 08:25:01;;;;;;;7.10;3.22;;;26.10;46.50;;;;;;4985169;28;20189;-95
2022/05/15 08:27:26;;;;;;;6.50;3.47;;;26.10;46.60;;;;;;5017650;28;20193;-96
2022/05/15 08:29:52;;;;;;;6.15;3.10;;;26.00;46.60;;;;;;5035145;28;20240;-95
2022/05/15 08:32:18;;;;;;;7.53;2.88;;;26.00;46.70;;;;;;5032226;28;20173;-96
2022/05/15 08:34:44;;;;;;;4.72;2.83;;;26.10;46.40;;;;;;5033487;28;20160;-96
2022/05/15 08:37:10;;;;;;;8.30;3.28;;;26.10;45.70;;;;;;5029967;28;20195;-93
2022/05/15 08:39:35;;;;;;;7.47;3.33;;;26.20;44.90;;;;;;5014889;28;20184;-92
2022/05/15 08:42:25;;;;;;;9.27;3.50;;;26.20;44.00;;;;;;5016013;28;20178;-92
2022/05/15 08:44:57;;;;;;;7.68;3.10;;;26.20;43.10;;;;;;5009540;28;20445;-93
2022/05/15 08:47:31;;;;;;;7.30;3.10;;;26.10;43.90;;;;;;5000585;28;20534;-92
2022/05/15 08:50:09;;;;;;;7.82;2.92;;;26.00;44.30;;;;;;5005059;28;20192;-93
2022/05/15 08:52:58;;;;;;;9.25;3.33;;;25.90;44.70;;;;;;5014889;28;20226;-93
2022/05/15 08:55:44;;;;;;;6.90;3.30;;;25.90;43.10;;;;;;5028563;28;20157;-93
2022/05/15 08:58:37;;;;;;;8.82;3.20;;;26.00;43.70;;;;;;5012443;28;20181;-93
2022/05/15 09:01:06;;;;;;;8.73;3.00;;;26.00;44.40;;;;;;5005636;28;20249;-92
2022/05/15 09:03:35;;;;;;;8.15;2.88;;;26.00;44.50;;;;;;5005810;28;20227;-93
2022/05/15 09:06:23;;;;;;;8.15;2.97;;;25.90;44.50;;;;;;5015716;28;20272;-93
2022/05/15 09:09:01;;;;;;;7.35;2.70;;;25.90;44.70;;;;;;5029888;28;20194;-93
2022/05/15 09:12:00;;;;;;;7.00;2.78;;;26.00;44.70;;;;;;5037922;28;20639;-94
2022/05/15 09:14:57;;;;;;;8.75;2.97;;;26.00;44.90;;;;;;5032307;28;20185;-93
2022/05/15 09:17:51;;;;;;;4.90;2.78;;;25.90;45.10;;;;;;5020370;28;20169;-93
2022/05/15 09:20:26;;;;;;;8.60;3.15;;;25.90;45.20;;;;;;5016668;28;20174;-93
2022/05/15 09:23:07;;;;;;;5.53;2.45;;;26.00;45.20;;;;;;5017622;28;20176;-94
2022/05/15 09:25:35;;;;;;;7.97;3.15;;;26.00;45.00;;;;;;5019483;28;20185;-94
2022/05/15 09:28:07;;;;;;;6.72;2.80;;;26.10;45.00;;;;;;5018892;28;20255;-94
2022/05/15 09:30:48;;;;;;;7.32;2.97;;;26.20;44.60;;;;;;5019131;28;20556;-94
2022/05/15 09:33:30;;;;;;;8.27;3.05;;;26.20;44.60;;;;;;5015878;28;20213;-93
2022/05/15 09:36:19;;;;;;;7.93;2.80;;;26.20;44.50;;;;;;5018172;28;20169;-94
2022/05/15 09:38:46;;;;;;;7.88;2.60;;;26.20;44.80;;;;;;5009731;28;20216;-94
2022/05/15 09:44:06;;;;;;;6.38;2.83;;;26.10;45.00;;;;;;5023639;28;20177;-94
2022/05/15 09:46:34;;;;;;;4.68;2.67;;;26.10;45.00;;;;;;5023881;28;20178;-94
2022/05/15 09:49:18;;;;;;;10.35;2.95;;;26.10;45.20;;;;;;5017120;28;20173;-94
2022/05/15 09:51:52;;;;;;;7.78;2.63;;;26.20;44.30;;;;;;5016163;28;20180;-94
2022/05/15 09:54:35;;;;;;;5.97;2.65;;;26.30;43.60;;;;;;5012816;28;20274;-94
2022/05/15 09:57:36;;;;;;;6.70;3.03;;;26.30;44.60;;;;;;5014047;28;20545;-93
2022/05/15 10:00:08;;;;;;;7.57;2.90;;;26.40;44.30;;;;;;5019607;28;20372;-93
2022/05/15 10:02:44;;;;;;;5.95;2.78;;;26.40;44.70;;;;;;5025505;28;20181;-93
2022/05/15 10:05:16;;;;;;;6.95;2.70;;;26.30;44.70;;;;;;5018279;28;20177;-94
2022/05/15 10:08:04;;;;;;;5.90;2.50;;;26.30;44.10;;;;;;5012636;28;20295;-93
2022/05/15 10:10:33;;;;;;;6.82;2.60;;;26.30;44.00;;;;;;5013863;28;20185;-93
2022/05/15 10:13:11;;;;;;;7.55;2.70;;;26.30;44.50;;;;;;5013289;28;20348;-93
2022/05/15 10:15:40;;;;;;;;;;;26.30;42.90;;;;;;5012320;28;20090;-92
2022/05/15 10:18:09;;;;;;;9.73;2.95;;;26.40;42.90;;;;;;5022334;28;20187;-93
2022/05/15 10:20:40;;;;;;;9.63;2.72;;;26.30;43.20;;;;;;5027766;28;20180;-93
2022/05/15 10:23:20;;;;;;;5.90;2.58;;;26.30;44.00;;;;;;5033423;28;20249;-93
2022/05/15 10:25:49;;;;;;;6.25;2.50;;;26.20;44.20;;;;;;5036785;28;20178;-93
2022/05/15 10:28:27;;;;;;;4.97;2.53;;;26.20;44.40;;;;;;5035572;28;20197;-93
2022/05/15 10:31:17;;;;;;;6.43;2.55;;;26.20;44.40;;;;;;5019452;28;20173;-93
2022/05/15 10:33:56;;;;;;;7.40;2.70;;;26.10;44.00;;;;;;5016844;28;20205;-92
2022/05/15 10:36:48;;;;;;;5.35;2.47;;;26.20;42.90;;;;;;5019885;28;20189;-93
2022/05/15 10:39:40;;;;;;;4.70;2.43;;;26.20;43.70;;;;;;4979035;28;20182;-93
2022/05/15 10:42:44;;;;;;;6.83;2.80;;;26.10;44.50;;;;;;5018272;28;20265;-93
2022/05/15 10:45:48;;;;;;;6.77;2.33;;;26.00;42.20;;;;;;5015729;28;20185;-93
2022/05/15 10:49:08;;;;;;;6.10;2.93;;;26.10;43.60;;;;;;5031308;28;20177;-94
2022/05/15 10:51:55;;;;;;;4.47;2.37;;;26.00;44.50;;;;;;4956666;28;20161;-94
2022/05/15 10:57:58;;;;;;;4.67;2.17;;;26.10;44.80;;;;;;5030875;28;20210;-94
2022/05/15 11:00:33;;;;;;;6.33;2.40;;;26.10;44.90;;;;;;5031436;28;20169;-94
2022/05/15 11:03:32;;;;;;;4.40;2.30;;;26.00;45.10;;;;;;5030120;28;20177;-93
2022/05/15 11:06:04;;;;;;;4.73;2.27;;;26.00;45.30;;;;;;5034539;28;20177;-94
2022/05/15 11:08:53;;;;;;;7.23;2.73;;;26.00;45.20;;;;;;5030899;28;20243;-93
2022/05/15 11:11:31;;;;;;;5.00;2.30;;;26.00;45.30;;;;;;5027279;28;20170;-93
2022/05/15 11:14:06;;;;;;;4.57;2.33;;;26.10;45.40;;;;;;5028814;28;20206;-94
2022/05/15 11:17:10;;;;;;;3.67;2.27;;;26.00;45.50;;;;;;5028055;28;20173;-94
2022/05/15 11:19:59;;;;;;;4.60;2.20;;;26.10;45.50;;;;;;5028147;28;20189;-94
2022/05/15 11:22:33;;;;;;;6.43;2.30;;;26.10;45.40;;;;;;5026089;28;20235;-93
2022/05/15 11:25:27;;;;;;;6.30;2.33;;;26.20;44.90;;;;;;5023550;28;20511;-94
2022/05/15 11:28:08;;;;;;;6.57;2.60;;;26.10;45.30;;;;;;5027545;28;20170;-94
2022/05/15 11:30:38;;;;;;;5.03;2.37;;;26.20;44.50;;;;;;5026750;28;20165;-94
2022/05/15 11:33:24;;;;;;;7.80;2.40;;;26.30;43.30;;;;;;5026489;28;20201;-93
2022/05/15 11:36:12;;;;;;;4.83;2.10;;;26.30;44.20;;;;;;5030457;28;20189;-93
2022/05/15 11:38:54;;;;;;;5.57;2.23;;;26.30;44.90;;;;;;5008719;28;20177;-93
2022/05/15 11:41:35;;;;;;;5.83;2.60;;;26.30;44.70;;;;;;5029441;28;20408;-94
2022/05/15 11:44:14;;;;;;;7.53;2.63;;;26.20;44.90;;;;;;5026361;28;20196;-92
2022/05/15 11:46:47;;;;;;;2.73;1.93;;;26.20;45.00;;;;;;5023263;28;20174;-93
2022/05/15 11:49:51;;;;;;;3.30;2.10;;;26.20;45.30;;;;;;5018725;28;20193;-92
2022/05/15 11:52:20;;;;;;;3.50;2.10;;;26.20;45.40;;;;;;5021473;28;25077;-92
2022/05/15 11:54:48;;;;;;;4.93;2.30;;;26.20;45.40;;;;;;5020900;28;20182;-94
2022/05/15 11:57:34;;;;;;;4.93;2.10;;;26.10;45.60;;;;;;5018668;28;20445;-92
2022/05/15 12:00:22;;;;;;;6.07;2.77;;;26.10;45.60;;;;;;5026623;28;20249;-95
2022/05/15 12:02:58;;;;;;;6.25;2.30;;;26.20;44.30;;;;;;5019460;28;20290;-93
2022/05/15 12:05:38;;;;;;;5.37;2.33;;;26.20;45.40;;;;;;5016741;28;20177;-92
2022/05/15 12:08:28;;;;;;;4.43;2.13;;;26.20;45.60;;;;;;5020625;28;20257;-94
2022/05/15 12:10:56;;;;;;;5.83;2.37;;;26.20;45.90;;;;;;5019270;28;20177;-92
2022/05/15 12:13:40;;;;;;;4.33;2.20;;;26.10;46.00;;;;;;5017686;28;20209;-92
2022/05/15 12:16:20;;;;;;;7.67;2.93;;;26.10;45.70;;;;;;5014388;28;20236;-93
2022/05/15 12:18:55;;;;;;;8.00;3.00;;;26.10;45.00;;;;;;5010008;28;20107;-93
2022/05/15 12:21:45;;;;;;;5.47;2.50;;;26.10;45.40;;;;;;5016998;28;20207;-94
2022/05/15 12:24:29;;;;;;;6.03;2.80;;;26.10;45.70;;;;;;5015981;28;20279;-92
2022/05/15 12:27:07;;;;;;;4.90;2.25;;;26.10;46.00;;;;;;5016214;28;20185;-92
2022/05/15 12:29:42;;;;;;;4.30;2.40;;;26.10;45.80;;;;;;5017167;28;20230;-93
2022/05/15 12:32:22;;;;;;;5.60;2.60;;;26.10;45.90;;;;;;5019999;28;20237;-92
2022/05/15 12:34:50;;;;;;;5.67;2.43;;;26.10;46.30;;;;;;5022331;28;20174;-93
2022/05/15 12:37:29;;;;;;;6.60;2.80;;;26.10;45.90;;;;;;5020734;28;20177;-93
2022/05/15 12:39:58;;;;;;;4.17;2.30;;;26.00;45.90;;;;;;5027804;28;20154;-93
2022/05/15 12:42:44;;;;;;;5.23;2.50;;;26.10;46.30;;;;;;5018587;28;20437;-93
2022/05/15 12:45:19;;;;;;;4.77;2.27;;;26.00;46.40;;;;;;5019809;28;20484;-93
2022/05/15 12:48:07;;;;;;;3.07;2.20;;;26.10;46.40;;;;;;5022127;28;20165;-93
2022/05/15 12:50:47;;;;;;;5.40;2.27;;;26.10;46.30;;;;;;5023688;28;20182;-93
2022/05/15 12:53:24;;;;;;;5.20;2.20;;;26.10;46.40;;;;;;5021848;28;20299;-92
2022/05/15 12:55:50;;;;;;;6.10;2.47;;;26.10;46.50;;;;;;5020480;28;20268;-93
2022/05/15 12:58:34;;;;;;;5.23;2.67;;;26.10;46.30;;;;;;5023183;28;20174;-93
2022/05/15 13:01:01;;;;;;;5.50;2.80;;;26.10;46.00;;;;;;5027124;28;20224;-93
2022/05/15 13:03:31;;;;;;;5.20;2.33;;;26.10;45.70;;;;;;5025855;28;20201;-93
2022/05/15 13:06:00;;;;;;;4.43;2.40;;;26.10;46.50;;;;;;5020103;28;20196;-92
2022/05/15 13:08:25;;;;;;;4.80;2.20;;;26.10;46.30;;;;;;5019589;28;20197;-94
2022/05/15 13:11:01;;;;;;;5.83;2.50;;;26.10;46.30;;;;;;5029921;28;20257;-94
2022/05/15 13:13:34;;;;;;;4.20;2.07;;;26.10;46.40;;;;;;5035879;28;20257;-93
2022/05/15 13:16:17;;;;;;;6.07;2.70;;;26.10;46.50;;;;;;5022600;28;20195;-93
2022/05/15 13:18:46;;;;;;;5.83;2.47;;;26.10;45.80;;;;;;5025063;28;20192;-93
2022/05/15 13:21:12;;;;;;;8.40;3.10;;;26.10;46.10;;;;;;5033904;28;20173;-94
2022/05/15 13:24:15;;;;;;;7.43;2.30;;;26.10;45.40;;;;;;5031872;28;20174;-94
2022/05/15 13:26:44;;;;;;;5.03;2.17;;;26.10;46.20;;;;;;5025863;28;20725;-92
2022/05/15 13:29:19;;;;;;;4.47;2.30;;;26.10;46.40;;;;;;5036177;28;20184;-94
2022/05/15 13:31:47;;;;;;;6.37;2.43;;;26.10;46.60;;;;;;5038224;28;20200;-94
2022/05/15 13:34:15;;;;;;;3.67;2.50;;;26.10;46.90;;;;;;5035128;28;20218;-94
2022/05/15 13:36:51;;;;;;;3.77;2.20;;;26.10;46.80;;;;;;5034532;28;20167;-94
2022/05/15 13:44:54;;;;;;;6.20;2.47;;;26.10;45.30;;;;;;5029775;28;20168;-93
2022/05/15 13:47:22;;;;;;;5.70;2.23;;;26.10;45.80;;;;;;5033350;28;20178;-93
2022/05/15 13:49:53;;;;;;;4.83;2.33;;;26.10;46.10;;;;;;5033447;28;20430;-93
2022/05/15 13:52:37;;;;;;;4.63;2.40;;;26.10;46.40;;;;;;5052353;28;20169;-93
2022/05/15 13:55:35;;;;;;;4.00;2.20;;;26.10;45.80;;;;;;5048431;28;20324;-94
2022/05/15 13:58:02;;;;;;;8.57;3.17;;;26.10;46.40;;;;;;5047263;28;20180;-92
2022/05/15 14:00:30;;;;;;;9.43;3.07;;;26.10;45.00;;;;;;5033576;28;20244;-93